Time;durP1;ratioP1;P1;durP2;ratioP2;P2;SDS_P1;SDS_P2;PMS_P1;PMS_P2;Temp;Humidity;BMP_temperature;BMP_pressure;BME280_temperature;BME280_humidity;BME280_pressure;Samples;Min_cycle;Max_cycle;Signal;HPM_P1;HPM_P2
2021/04/01 00:00:16;;;;;;;5.10;2.80;;;13.50;56.70;;;;;;6245671;23;20039;-76
2021/04/01 00:02:46;;;;;;;8.48;3.20;;;13.50;56.20;;;;;;6246385;23;19992;-76
2021/04/01 00:05:12;;;;;;;5.25;2.78;;;13.50;56.40;;;;;;6246074;23;20059;-76
2021/04/01 00:07:38;;;;;;;7.85;2.78;;;13.40;56.60;;;;;;6246539;23;19996;-76
2021/04/01 00:10:08;;;;;;;6.18;2.88;;;13.30;57.20;;;;;;6271556;22;20455;-76
2021/04/01 00:12:34;;;;;;;7.60;3.10;;;13.30;56.80;;;;;;6246590;23;20070;-75
2021/04/01 00:15:00;;;;;;;7.20;3.40;;;13.40;57.50;;;;;;6245645;23;20004;-78
2021/04/01 00:17:26;;;;;;;5.82;3.03;;;13.30;57.20;;;;;;6246718;23;20442;-77
2021/04/01 00:19:52;;;;;;;5.00;3.13;;;13.30;57.70;;;;;;6244260;23;20019;-78
2021/04/01 00:22:18;;;;;;;8.02;3.65;;;13.20;58.00;;;;;;6245505;23;20008;-78
2021/04/01 00:24:43;;;;;;;6.65;3.30;;;13.20;58.40;;;;;;6245800;23;20378;-78
2021/04/01 00:27:09;;;;;;;6.18;3.67;;;13.20;58.20;;;;;;6245081;23;20001;-78
2021/04/01 00:29:35;;;;;;;8.30;3.15;;;13.20;58.40;;;;;;6244690;23;20008;-77
2021/04/01 00:32:00;;;;;;;8.95;3.33;;;13.30;58.20;;;;;;6245296;23;20431;-76
2021/04/01 00:34:26;;;;;;;9.25;3.67;;;13.30;57.70;;;;;;6246504;23;20423;-76
2021/04/01 00:36:52;;;;;;;6.10;2.72;;;13.20;58.60;;;;;;6246365;23;20411;-77
2021/04/01 00:39:17;;;;;;;7.63;3.28;;;13.20;58.40;;;;;;6271481;22;20319;-77
2021/04/01 00:41:43;;;;;;;8.43;3.15;;;13.10;58.60;;;;;;6244748;23;20488;-77
2021/04/01 00:44:09;;;;;;;9.60;3.30;;;13.10;58.60;;;;;;6245555;23;20386;-77
2021/04/01 00:46:36;;;;;;;8.35;3.20;;;13.00;58.50;;;;;;6244732;23;20091;-77
2021/04/01 00:49:03;;;;;;;8.48;3.45;;;12.90;58.90;;;;;;6246255;23;20079;-77
2021/04/01 00:51:28;;;;;;;6.45;3.20;;;12.80;59.00;;;;;;6246476;23;20075;-77
2021/04/01 00:53:54;;;;;;;6.93;3.13;;;12.70;59.30;;;;;;6244742;23;20031;-77
2021/04/01 00:56:23;;;;;;;9.15;3.47;;;12.60;59.70;;;;;;6246741;23;20027;-77
2021/04/01 00:58:48;;;;;;;7.10;2.88;;;12.50;60.30;;;;;;6246193;23;19992;-77
2021/04/01 01:03:58;;;;;;;7.05;2.97;;;12.50;60.20;;;;;;6246962;23;20059;-76
2021/04/01 01:06:24;;;;;;;6.13;2.78;;;12.50;60.10;;;;;;6244617;23;20016;-76
2021/04/01 01:08:50;;;;;;;9.15;3.13;;;12.50;60.10;;;;;;6244444;23;20000;-76
2021/04/01 01:11:16;;;;;;;5.28;3.03;;;12.60;60.10;;;;;;6245275;23;20087;-77
2021/04/01 01:13:41;;;;;;;6.85;2.85;;;12.60;60.10;;;;;;6244197;23;20005;-76
2021/04/01 01:16:07;;;;;;;7.53;2.80;;;12.40;60.30;;;;;;6245128;23;20040;-77
2021/04/01 01:18:33;;;;;;;10.38;3.08;;;12.50;60.80;;;;;;6245185;23;20447;-77
2021/04/01 01:21:00;;;;;;;6.63;2.95;;;12.50;60.80;;;;;;6245894;23;20087;-77
2021/04/01 01:23:27;;;;;;;8.75;3.15;;;12.40;61.00;;;;;;6270730;22;20000;-77
2021/04/01 01:25:57;;;;;;;6.43;2.92;;;12.40;61.10;;;;;;6244634;23;20424;-77
2021/04/01 01:28:24;;;;;;;6.88;3.35;;;12.40;61.00;;;;;;6271085;22;20007;-77
2021/04/01 01:30:51;;;;;;;9.45;3.65;;;12.40;61.20;;;;;;6244486;23;20087;-77
2021/04/01 01:33:19;;;;;;;5.78;2.80;;;12.40;61.60;;;;;;6246730;23;20066;-77
2021/04/01 01:35:47;;;;;;;11.07;3.25;;;12.30;60.80;;;;;;6244211;23;20000;-76
2021/04/01 01:38:13;;;;;;;7.07;3.15;;;12.30;61.50;;;;;;6246437;23;19992;-76
2021/04/01 01:40:39;;;;;;;6.18;2.80;;;12.20;61.90;;;;;;6243325;23;20012;-77
2021/04/01 01:43:13;;;;;;;5.78;3.20;;;12.10;61.70;;;;;;6244367;23;20091;-76
2021/04/01 01:45:41;;;;;;;5.95;3.13;;;12.10;62.30;;;;;;6243844;23;20004;-76
2021/04/01 01:48:07;;;;;;;5.78;2.95;;;12.10;62.20;;;;;;6246084;23;20008;-76
2021/04/01 01:50:36;;;;;;;6.07;2.83;;;12.00;62.30;;;;;;6246263;23;19996;-76
2021/04/01 01:53:02;;;;;;;6.03;2.88;;;12.10;62.20;;;;;;6244999;23;20004;-76
2021/04/01 01:55:28;;;;;;;6.97;2.90;;;12.00;62.50;;;;;;6244711;23;20004;-76
2021/04/01 01:57:54;;;;;;;7.18;2.97;;;12.00;62.40;;;;;;6244014;23;20330;-76
2021/04/01 02:00:31;;;;;;;8.35;3.15;;;12.00;62.60;;;;;;6244638;23;20083;-76
2021/04/01 02:02:58;;;;;;;8.32;3.15;;;12.00;63.00;;;;;;6245603;22;20503;-76
2021/04/01 02:05:25;;;;;;;6.03;2.80;;;11.80;62.90;;;;;;6246168;23;20000;-76
2021/04/01 02:07:52;;;;;;;6.60;3.08;;;11.90;63.00;;;;;;6243740;23;20435;-76
2021/04/01 02:10:32;;;;;;;8.02;2.78;;;11.80;63.00;;;;;;6244879;23;20000;-76
2021/04/01 02:12:59;;;;;;;6.82;2.78;;;11.70;63.30;;;;;;6245797;23;20331;-75
2021/04/01 02:15:29;;;;;;;9.82;3.25;;;11.70;63.80;;;;;;6244901;23;20012;-75
2021/04/01 02:18:28;;;;;;;9.68;2.90;;;11.50;64.10;;;;;;6243656;23;20020;-76
2021/04/01 02:20:56;;;;;;;9.27;3.30;;;11.60;64.00;;;;;;6178760;23;20019;-76
2021/04/01 02:23:33;;;;;;;5.57;2.60;;;11.60;63.80;;;;;;6270224;22;20011;-76
2021/04/01 02:26:01;;;;;;;5.35;2.58;;;11.60;63.90;;;;;;6243772;23;20000;-76
2021/04/01 02:28:32;;;;;;;9.98;2.92;;;11.50;63.80;;;;;;6245495;23;19996;-76
2021/04/01 02:31:06;;;;;;;8.10;3.00;;;11.50;64.00;;;;;;6243770;23;20333;-76
2021/04/01 02:33:35;;;;;;;6.82;2.88;;;11.40;64.50;;;;;;6245869;23;20027;-78
2021/04/01 02:36:03;;;;;;;8.73;2.53;;;11.50;64.20;;;;;;6243581;23;20028;-76
2021/04/01 02:38:28;;;;;;;7.88;2.97;;;11.50;64.20;;;;;;6244188;23;20031;-76
2021/04/01 02:40:55;;;;;;;4.78;2.83;;;11.50;64.00;;;;;;6243439;23;20073;-77
2021/04/01 02:43:39;;;;;;;9.73;3.10;;;11.40;64.50;;;;;;6269929;22;20439;-76
2021/04/01 02:46:06;;;;;;;8.75;2.63;;;11.40;64.50;;;;;;6244228;23;20371;-76
2021/04/01 02:48:32;;;;;;;8.60;3.20;;;11.60;63.90;;;;;;6269845;22;20031;-76
2021/04/01 02:50:58;;;;;;;8.07;3.05;;;11.60;63.60;;;;;;6243050;23;20428;-76
2021/04/01 02:53:24;;;;;;;5.13;2.70;;;11.80;62.70;;;;;;6244996;23;20004;-76
2021/04/01 02:55:49;;;;;;;8.05;3.22;;;11.80;63.00;;;;;;6268827;22;20004;-76
2021/04/01 02:58:16;;;;;;;6.57;2.55;;;11.70;63.40;;;;;;6245507;23;20000;-76
2021/04/01 03:00:41;;;;;;;9.38;2.55;;;11.80;63.00;;;;;;6243307;23;20015;-76
2021/04/01 03:05:36;;;;;;;5.22;3.00;;;12.00;62.40;;;;;;6246115;23;20001;-76
2021/04/01 03:08:02;;;;;;;8.13;2.53;;;11.90;62.90;;;;;;6243532;23;20095;-76
2021/04/01 03:10:27;;;;;;;6.70;3.10;;;11.80;63.20;;;;;;6245439;23;20039;-76
2021/04/01 03:12:53;;;;;;;7.32;2.80;;;11.70;63.40;;;;;;6269026;22;20040;-76
2021/04/01 03:15:19;;;;;;;8.77;2.55;;;11.80;63.40;;;;;;6244089;23;20008;-76
2021/04/01 03:17:45;;;;;;;6.35;3.10;;;11.80;63.50;;;;;;6243388;23;20028;-76
2021/04/01 03:20:12;;;;;;;10.18;3.13;;;11.80;63.70;;;;;;6244196;23;20127;-76
2021/04/01 03:22:38;;;;;;;6.93;2.70;;;11.90;63.00;;;;;;6244464;23;20020;-76
2021/04/01 03:25:06;;;;;;;6.88;2.75;;;12.00;62.30;;;;;;6269353;22;20000;-76
2021/04/01 03:27:32;;;;;;;8.02;3.03;;;12.10;62.30;;;;;;6244252;23;20079;-76
2021/04/01 03:30:06;;;;;;;5.30;2.58;;;11.90;62.50;;;;;;6245317;23;20038;-76
2021/04/01 03:32:33;;;;;;;9.25;3.00;;;11.80;62.90;;;;;;6245687;23;20001;-76
2021/04/01 03:34:59;;;;;;;5.72;2.80;;;11.70;63.40;;;;;;6269084;22;20419;-76
2021/04/01 03:37:25;;;;;;;8.55;3.03;;;11.70;63.70;;;;;;6244205;23;20015;-76
2021/04/01 03:39:51;;;;;;;10.50;2.58;;;11.60;64.10;;;;;;6268899;22;20494;-76
2021/04/01 03:42:17;;;;;;;6.45;2.90;;;11.60;64.20;;;;;;6243686;23;20012;-76
2021/04/01 03:44:43;;;;;;;5.28;2.72;;;11.60;64.30;;;;;;6244833;23;20067;-76
2021/04/01 03:47:08;;;;;;;5.68;3.03;;;11.70;63.80;;;;;;6245376;23;20444;-76
2021/04/01 03:49:34;;;;;;;6.80;3.00;;;11.80;63.40;;;;;;6243586;23;20043;-76
2021/04/01 03:52:00;;;;;;;8.30;2.92;;;11.90;62.90;;;;;;6243218;23;20000;-77
2021/04/01 03:54:25;;;;;;;9.65;2.92;;;12.00;62.70;;;;;;6243405;23;20020;-77
2021/04/01 03:56:51;;;;;;;8.65;2.88;;;12.10;62.30;;;;;;6243161;23;20015;-77
2021/04/01 03:59:21;;;;;;;10.55;2.80;;;12.20;62.40;;;;;;6243863;23;20004;-76
2021/04/01 04:02:37;;;;;;;8.02;2.97;;;12.30;62.20;;;;;;6244444;23;20011;-79
2021/04/01 04:07:32;;;;;;;6.35;3.15;;;12.40;61.90;;;;;;6245166;23;20005;-78
2021/04/01 04:15:20;;;;;;;6.78;3.20;;;12.60;61.60;;;;;;6255871;23;20091;-78
2021/04/01 04:17:46;;;;;;;6.10;3.20;;;12.60;61.60;;;;;;6243347;23;20016;-79
2021/04/01 04:20:12;;;;;;;5.28;3.20;;;12.60;61.60;;;;;;6244247;23;20023;-78
2021/04/01 04:22:38;;;;;;;7.78;3.42;;;12.60;61.80;;;;;;6245393;23;20000;-78
2021/04/01 04:25:07;;;;;;;12.65;4.15;;;12.60;61.90;;;;;;6246545;23;20051;-78
2021/04/01 04:30:19;;;;;;;7.40;3.13;;;12.70;61.70;;;;;;6247168;23;20046;-77
2021/04/01 04:32:44;;;;;;;7.53;3.30;;;12.70;61.40;;;;;;6245901;23;20015;-77
2021/04/01 04:35:11;;;;;;;13.13;3.60;;;12.80;61.30;;;;;;6270645;22;20436;-77
2021/04/01 04:37:37;;;;;;;7.15;2.97;;;12.70;61.30;;;;;;6247123;23;19996;-76
2021/04/01 04:40:04;;;;;;;9.63;3.85;;;12.70;61.30;;;;;;6246728;23;20067;-76
2021/04/01 04:42:30;;;;;;;6.00;3.47;;;12.70;61.60;;;;;;6246639;23;20419;-75
2021/04/01 04:44:55;;;;;;;8.02;3.40;;;12.70;61.60;;;;;;6244670;23;20036;-76
2021/04/01 04:47:21;;;;;;;7.78;3.17;;;12.70;61.60;;;;;;6246918;23;20003;-76
2021/04/01 04:49:47;;;;;;;6.97;3.60;;;12.70;61.50;;;;;;6270115;22;19996;-76
2021/04/01 04:52:12;;;;;;;8.70;3.35;;;12.70;61.50;;;;;;6246633;23;20000;-76
2021/04/01 04:54:38;;;;;;;10.57;3.80;;;12.70;61.20;;;;;;6244841;23;20008;-75
2021/04/01 04:57:40;;;;;;;9.43;3.58;;;12.80;61.20;;;;;;6244375;23;20011;-75
2021/04/01 05:05:09;;;;;;;9.15;3.95;;;12.70;61.20;;;;;;6245693;23;20340;-75
2021/04/01 05:07:35;;;;;;;6.75;3.55;;;12.70;61.20;;;;;;6245278;23;20012;-79
2021/04/01 05:10:01;;;;;;;9.38;3.72;;;12.70;61.10;;;;;;6244415;23;20012;-78
2021/04/01 05:12:26;;;;;;;5.68;3.45;;;12.70;61.30;;;;;;6245007;23;20008;-79
2021/04/01 05:14:52;;;;;;;7.40;3.58;;;12.70;61.20;;;;;;6244318;23;20004;-79
2021/04/01 05:17:20;;;;;;;9.95;3.78;;;12.80;61.30;;;;;;6270709;22;20012;-79
2021/04/01 05:19:47;;;;;;;6.47;3.90;;;12.80;61.20;;;;;;6246733;23;20048;-79
2021/04/01 05:23:02;;;;;;;8.15;3.42;;;12.80;61.30;;;;;;6244982;23;20016;-79
2021/04/01 05:25:04;;;;;;;12.55;4.28;;;12.80;61.50;;;;;;6222396;23;20004;-78
2021/04/01 05:27:37;;;;;;;9.52;3.58;;;12.80;61.40;;;;;;6270654;22;20004;-77
2021/04/01 05:30:04;;;;;;;10.27;3.60;;;12.90;61.40;;;;;;6244378;23;20007;-78
2021/04/01 05:32:34;;;;;;;7.20;3.70;;;12.90;61.30;;;;;;6246555;23;20079;-79
2021/04/01 05:35:04;;;;;;;5.10;3.25;;;12.90;61.30;;;;;;6244283;23;20000;-79
2021/04/01 05:37:30;;;;;;;11.25;3.65;;;12.90;61.30;;;;;;6246469;23;20419;-79
2021/04/01 05:39:56;;;;;;;8.75;3.83;;;12.90;61.50;;;;;;6245611;23;20055;-78
2021/04/01 05:42:24;;;;;;;6.95;3.60;;;13.00;61.50;;;;;;6246196;23;20008;-77
2021/04/01 05:45:12;;;;;;;5.75;3.28;;;13.00;61.40;;;;;;6245555;23;20521;-77
2021/04/01 05:47:49;;;;;;;8.25;4.20;;;12.90;61.30;;;;;;6246190;23;20075;-77
2021/04/01 06:01:49;;;;;;;7.00;3.53;;;13.10;61.60;;;;;;6246211;23;20016;-78
2021/04/01 06:04:26;;;;;;;9.80;3.60;;;13.10;60.70;;;;;;6243946;23;20004;-78
2021/04/01 06:06:58;;;;;;;11.35;4.07;;;13.20;60.70;;;;;;6243810;23;20000;-77
2021/04/01 06:09:27;;;;;;;10.18;4.10;;;13.20;60.60;;;;;;6245910;23;20003;-78
2021/04/01 06:11:55;;;;;;;7.70;3.15;;;13.20;61.10;;;;;;6245306;23;20027;-77
2021/04/01 06:14:58;;;;;;;11.40;3.53;;;13.20;61.00;;;;;;6246297;23;20015;-77
2021/04/01 06:17:30;;;;;;;10.82;3.75;;;13.20;61.00;;;;;;6208755;23;20016;-77
2021/04/01 06:19:58;;;;;;;10.05;3.97;;;13.30;60.60;;;;;;6243822;23;20020;-78
2021/04/01 06:22:25;;;;;;;8.93;3.85;;;13.30;60.50;;;;;;6244120;23;20004;-77
2021/04/01 06:24:52;;;;;;;8.68;3.92;;;13.40;60.10;;;;;;6245998;22;20007;-77
2021/04/01 06:27:25;;;;;;;9.57;3.70;;;13.40;60.20;;;;;;6244132;23;20005;-77
2021/04/01 06:30:14;;;;;;;12.13;4.00;;;13.40;60.00;;;;;;6244264;23;20004;-76
2021/04/01 06:32:46;;;;;;;10.07;3.60;;;13.40;59.70;;;;;;6244325;23;20004;-76
2021/04/01 06:35:19;;;;;;;;;;;13.50;59.50;;;;;;6244324;23;20039;-76
2021/04/01 06:40:10;;;;;;;10.85;3.35;;;13.60;59.90;;;;;;6245340;23;20087;-76
2021/04/01 06:42:52;;;;;;;15.98;4.20;;;13.60;59.70;;;;;;6244174;23;20050;-76
2021/04/01 06:45:23;;;;;;;12.43;3.85;;;13.60;59.30;;;;;;6243732;23;20036;-76
2021/04/01 06:47:51;;;;;;;12.90;4.05;;;13.70;59.20;;;;;;6244335;23;20004;-77
2021/04/01 06:50:24;;;;;;;6.57;3.72;;;13.70;58.70;;;;;;6245391;23;19997;-77
2021/04/01 06:53:00;;;;;;;11.38;3.80;;;13.80;58.90;;;;;;6244840;23;20007;-77
2021/04/01 06:55:49;;;;;;;9.38;3.42;;;13.80;59.00;;;;;;6270676;22;20000;-78
2021/04/01 07:01:02;;;;;;;7.20;3.73;;;13.90;59.00;;;;;;6255377;23;20012;-77
2021/04/01 07:03:38;;;;;;;;;;;14.00;58.80;;;;;;6244872;23;20536;-77
2021/04/01 07:06:17;;;;;;;8.52;3.60;;;14.00;58.70;;;;;;6245003;23;19922;-77
2021/04/01 07:11:41;;;;;;;10.52;3.78;;;14.10;58.00;;;;;;6245399;23;20015;-77
2021/04/01 07:14:09;;;;;;;12.65;3.88;;;14.30;57.50;;;;;;6243540;23;19997;-77
2021/04/01 07:16:46;;;;;;;12.63;3.88;;;14.30;57.50;;;;;;6245434;23;20374;-76
2021/04/01 07:19:48;;;;;;;11.80;3.75;;;14.30;57.40;;;;;;6242857;23;20328;-77
2021/04/01 07:47:28;;;;;;;10.63;4.03;;;15.10;56.10;;;;;;6244721;23;20323;-78
2021/04/01 07:49:56;;;;;;;12.07;3.88;;;15.20;56.20;;;;;;6243845;23;20001;-78
2021/04/01 07:52:31;;;;;;;8.20;3.42;;;15.20;56.10;;;;;;6268873;22;20012;-78
2021/04/01 07:55:22;;;;;;;11.65;4.03;;;15.30;55.90;;;;;;6243740;23;20435;-78
2021/04/01 08:05:42;;;;;;;4.90;2.85;;;15.60;54.90;;;;;;6246670;23;20055;-77
2021/04/01 08:08:11;;;;;;;5.68;2.95;;;15.70;54.80;;;;;;6270320;22;20000;-78
2021/04/01 08:10:43;;;;;;;9.18;3.28;;;15.80;54.70;;;;;;6245061;23;20008;-82
2021/04/01 08:13:12;;;;;;;7.53;3.05;;;15.80;53.80;;;;;;6263938;22;20494;-76
2021/04/01 08:15:49;;;;;;;9.20;3.00;;;15.80;54.10;;;;;;6247017;23;20054;-80
2021/04/01 08:18:22;;;;;;;6.63;3.20;;;15.90;54.70;;;;;;6244617;23;20439;-80
2021/04/01 08:20:54;;;;;;;6.25;2.50;;;15.90;54.10;;;;;;6247316;23;20438;-78
2021/04/01 08:23:28;;;;;;;10.63;3.20;;;15.90;54.30;;;;;;6270819;22;20008;-78
2021/04/01 08:33:35;;;;;;;9.15;3.42;;;16.00;54.80;;;;;;6246702;23;19993;-78
2021/04/01 08:36:02;;;;;;;12.00;3.10;;;16.00;54.80;;;;;;6268311;22;20004;-79
2021/04/01 08:38:28;;;;;;;6.63;2.90;;;16.10;55.00;;;;;;6269550;22;20011;-80
2021/04/01 08:41:02;;;;;;;6.03;3.22;;;16.20;55.00;;;;;;6246319;23;20004;-79
2021/04/01 08:44:00;;;;;;;7.78;3.13;;;16.30;54.60;;;;;;6246245;23;20345;-80
2021/04/01 08:46:57;;;;;;;10.02;3.35;;;16.40;53.90;;;;;;6247470;23;20007;-80
2021/04/01 08:49:38;;;;;;;8.10;3.03;;;16.50;53.60;;;;;;6195821;23;20031;-81
2021/04/01 08:52:22;;;;;;;8.23;2.70;;;16.50;53.30;;;;;;6245362;23;19996;-78
2021/04/01 08:55:07;;;;;;;7.32;3.10;;;16.70;52.40;;;;;;6271156;22;20000;-80
2021/04/01 08:57:54;;;;;;;4.80;2.58;;;16.80;51.50;;;;;;6246256;22;20388;-81
2021/04/01 09:00:21;;;;;;;5.60;2.65;;;16.90;51.90;;;;;;6248376;23;20050;-84
2021/04/01 09:02:51;;;;;;;6.13;3.00;;;17.00;51.30;;;;;;6249423;23;20411;-82
2021/04/01 09:05:19;;;;;;;7.55;3.45;;;17.00;50.90;;;;;;6248080;23;20008;-84
2021/04/01 09:07:49;;;;;;;9.65;4.28;;;17.20;51.20;;;;;;6272987;22;20006;-85
2021/04/01 09:13:22;;;;;;;4.68;2.85;;;17.40;51.00;;;;;;6255514;23;20004;-84
2021/04/01 09:15:49;;;;;;;8.48;2.85;;;17.40;49.30;;;;;;6246230;22;20005;-83
2021/04/01 09:18:28;;;;;;;7.70;2.53;;;17.50;50.40;;;;;;6245060;23;20035;-77
2021/04/01 09:20:57;;;;;;;7.40;2.60;;;17.60;50.30;;;;;;6244962;23;20343;-81
2021/04/01 09:23:47;;;;;;;8.45;2.58;;;17.70;50.50;;;;;;6244631;23;20015;-81
2021/04/01 09:26:14;;;;;;;7.82;2.13;;;17.80;49.30;;;;;;6244976;23;20028;-82
2021/04/01 09:28:42;;;;;;;8.25;2.60;;;17.90;49.10;;;;;;6245614;23;20080;-81
2021/04/01 09:31:12;;;;;;;4.32;2.40;;;18.10;48.60;;;;;;6270502;22;20000;-82
2021/04/01 09:33:40;;;;;;;6.20;2.50;;;18.10;48.30;;;;;;6245568;23;20004;-82
2021/04/01 09:36:18;;;;;;;5.35;2.28;;;18.20;48.60;;;;;;6269980;22;20000;-80
2021/04/01 09:38:49;;;;;;;5.43;2.20;;;18.20;48.20;;;;;;6244957;23;19996;-82
2021/04/01 09:41:32;;;;;;;5.13;2.08;;;18.30;47.20;;;;;;6243877;23;20090;-80
2021/04/01 09:44:08;;;;;;;7.05;2.05;;;18.40;45.10;;;;;;6245703;23;20045;-78
2021/04/01 09:47:02;;;;;;;6.60;2.38;;;18.60;45.60;;;;;;6245530;23;20059;-79
2021/04/01 09:49:33;;;;;;;6.13;2.40;;;18.70;45.20;;;;;;6243243;23;20059;-77
2021/04/01 09:52:01;;;;;;;5.95;2.30;;;18.70;44.80;;;;;;6243348;23;20008;-76
2021/04/01 09:54:30;;;;;;;5.10;2.00;;;18.80;43.20;;;;;;6243512;23;20008;-76
2021/04/01 09:56:59;;;;;;;3.25;1.60;;;18.90;43.30;;;;;;6243801;23;20018;-76
2021/04/01 10:02:41;;;;;;;6.03;1.77;;;19.00;41.80;;;;;;6244015;23;20023;-77
2021/04/01 10:05:07;;;;;;;2.95;1.60;;;19.10;42.00;;;;;;6239592;23;20379;-76
2021/04/01 10:07:36;;;;;;;4.68;1.73;;;19.20;42.30;;;;;;6244491;23;20001;-77
2021/04/01 10:10:04;;;;;;;3.45;1.88;;;19.30;42.50;;;;;;6244328;23;20004;-77
2021/04/01 10:12:36;;;;;;;5.00;2.10;;;19.30;42.40;;;;;;6245313;23;20028;-78
2021/04/01 10:15:09;;;;;;;6.60;2.08;;;19.40;42.20;;;;;;6245081;23;20008;-78
2021/04/01 10:17:36;;;;;;;5.30;1.70;;;19.50;43.00;;;;;;6243835;23;20331;-78
2021/04/01 10:20:03;;;;;;;6.93;1.92;;;19.50;43.10;;;;;;6244870;23;20335;-78
2021/04/01 10:22:36;;;;;;;6.82;2.22;;;19.60;43.90;;;;;;6218966;23;20099;-77
2021/04/01 10:25:02;;;;;;;3.88;2.08;;;19.70;42.90;;;;;;6244743;23;20007;-78
2021/04/01 10:27:36;;;;;;;8.77;2.58;;;19.80;42.60;;;;;;6205127;23;20012;-79
2021/04/01 10:30:07;;;;;;;5.72;1.95;;;19.90;42.70;;;;;;6218015;23;19997;-74
2021/04/01 10:32:53;;;;;;;4.07;2.00;;;19.90;42.60;;;;;;6232165;23;20019;-73
2021/04/01 10:35:28;;;;;;;5.65;2.63;;;19.90;44.20;;;;;;6216267;23;20011;-73
2021/04/01 10:37:57;;;;;;;10.32;4.25;;;20.00;42.80;;;;;;6244461;23;20024;-77
2021/04/01 10:40:23;;;;;;;4.28;2.30;;;20.20;42.20;;;;;;6243698;23;20000;-75
2021/04/01 10:43:06;;;;;;;5.38;2.05;;;20.20;42.30;;;;;;6218052;23;20019;-76
2021/04/01 10:45:40;;;;;;;6.32;2.58;;;20.20;41.70;;;;;;6245534;23;20004;-76
2021/04/01 10:48:25;;;;;;;4.57;2.08;;;20.10;42.00;;;;;;6217774;23;20004;-76
2021/04/01 10:50:53;;;;;;;5.88;2.30;;;20.20;42.50;;;;;;6217970;23;20371;-74
2021/04/01 10:53:21;;;;;;;4.22;2.30;;;20.20;42.70;;;;;;6216792;23;20004;-74
2021/04/01 10:55:47;;;;;;;5.03;2.58;;;20.20;42.90;;;;;;6217247;23;20038;-74
2021/04/01 10:58:14;;;;;;;4.95;2.47;;;20.30;42.70;;;;;;6216578;23;20028;-76
2021/04/01 11:00:50;;;;;;;5.85;2.10;;;20.30;42.50;;;;;;6217162;23;20000;-76
2021/04/01 11:03:17;;;;;;;7.15;2.30;;;20.30;43.60;;;;;;6217393;23;20042;-75
2021/04/01 11:05:44;;;;;;;5.53;2.40;;;20.40;42.40;;;;;;6218255;23;20008;-74
2021/04/01 11:08:11;;;;;;;8.10;2.30;;;20.50;43.00;;;;;;6217023;23;20000;-75
2021/04/01 11:10:38;;;;;;;7.35;2.60;;;20.50;42.60;;;;;;6244368;23;20020;-76
2021/04/01 11:13:06;;;;;;;5.57;2.45;;;20.60;41.80;;;;;;6244465;23;19997;-76
2021/04/01 11:15:35;;;;;;;9.63;2.25;;;20.60;41.60;;;;;;6217512;23;20494;-76
2021/04/01 11:18:10;;;;;;;7.38;2.17;;;20.70;42.10;;;;;;6244819;23;20020;-74
2021/04/01 11:20:41;;;;;;;6.15;2.33;;;20.80;41.90;;;;;;6244926;23;20023;-75
2021/04/01 11:23:11;;;;;;;6.10;2.03;;;20.80;41.80;;;;;;6244416;23;19993;-75
2021/04/01 11:25:46;;;;;;;6.45;2.10;;;20.90;41.10;;;;;;6218201;23;20000;-75
2021/04/01 11:28:11;;;;;;;5.70;2.13;;;20.90;42.20;;;;;;6243723;23;20415;-75
2021/04/01 11:30:44;;;;;;;5.57;1.98;;;21.00;41.20;;;;;;6218067;23;20062;-73
2021/04/01 11:33:11;;;;;;;4.65;2.05;;;21.20;41.00;;;;;;6245548;23;20003;-77
2021/04/01 11:35:40;;;;;;;4.07;2.42;;;21.20;41.10;;;;;;6246578;23;19999;-75
2021/04/01 11:38:11;;;;;;;3.50;2.10;;;21.20;40.70;;;;;;6244777;23;20004;-76
2021/04/01 11:40:39;;;;;;;4.60;2.20;;;21.30;40.90;;;;;;6246601;23;20023;-77
2021/04/01 11:43:05;;;;;;;4.43;2.10;;;21.40;40.60;;;;;;6245267;23;20012;-77
2021/04/01 11:45:38;;;;;;;5.40;2.53;;;21.40;41.00;;;;;;6244590;23;20028;-77
2021/04/01 11:48:07;;;;;;;5.63;2.30;;;21.50;40.40;;;;;;6246989;23;20000;-78
2021/04/01 11:50:33;;;;;;;6.03;2.33;;;21.60;40.10;;;;;;6246970;23;20000;-77
2021/04/01 11:53:00;;;;;;;7.68;2.50;;;21.70;40.00;;;;;;6247400;23;20468;-77
2021/04/01 11:55:27;;;;;;;4.93;2.17;;;21.70;40.00;;;;;;6219896;23;20019;-77
2021/04/01 11:57:54;;;;;;;5.30;2.05;;;21.80;39.60;;;;;;6247093;23;20431;-77
2021/04/01 12:00:34;;;;;;;8.45;1.98;;;21.90;39.90;;;;;;6219781;23;20004;-77
2021/04/01 12:03:03;;;;;;;5.35;2.70;;;22.00;40.20;;;;;;6247019;23;20012;-78
2021/04/01 12:05:31;;;;;;;6.40;2.25;;;22.10;39.90;;;;;;6219556;23;20083;-77
2021/04/01 12:07:57;;;;;;;8.38;2.60;;;22.20;39.30;;;;;;6247024;23;20076;-77
2021/04/01 12:10:24;;;;;;;5.78;2.35;;;22.40;39.40;;;;;;6246306;23;20062;-77
2021/04/01 12:12:53;;;;;;;4.95;2.40;;;22.50;39.10;;;;;;6219878;23;20071;-77
2021/04/01 12:15:30;;;;;;;3.80;1.77;;;22.50;39.30;;;;;;6219227;23;20012;-77
2021/04/01 12:17:56;;;;;;;5.82;2.30;;;22.60;39.80;;;;;;6219885;23;20001;-77
2021/04/01 12:20:22;;;;;;;6.15;2.22;;;22.70;39.30;;;;;;6219354;23;20004;-77
2021/04/01 12:22:48;;;;;;;4.65;2.08;;;22.80;40.00;;;;;;6220106;23;20020;-78
2021/04/01 12:25:20;;;;;;;5.25;2.13;;;23.00;39.60;;;;;;6219520;23;20012;-77
2021/04/01 12:27:54;;;;;;;3.42;2.03;;;23.10;39.20;;;;;;6219938;23;20004;-78
2021/04/01 12:30:28;;;;;;;3.97;2.42;;;23.20;39.10;;;;;;6219443;23;20008;-78
2021/04/01 12:33:05;;;;;;;6.60;2.28;;;23.30;38.40;;;;;;6246954;23;20316;-77
2021/04/01 12:35:31;;;;;;;9.35;2.42;;;23.40;37.90;;;;;;6245655;23;20023;-77
2021/04/01 12:38:02;;;;;;;5.78;2.05;;;23.40;38.10;;;;;;6220337;23;20004;-77
2021/04/01 12:40:28;;;;;;;6.70;2.00;;;23.50;38.30;;;;;;6245961;23;19996;-77
2021/04/01 12:43:03;;;;;;;5.07;2.47;;;23.50;37.90;;;;;;6245320;23;20044;-77
2021/04/01 12:45:30;;;;;;;5.20;2.25;;;23.50;36.40;;;;;;6246143;23;19996;-77
2021/04/01 12:48:17;;;;;;;4.78;1.90;;;23.60;36.90;;;;;;6246591;23;20034;-77
2021/04/01 12:50:46;;;;;;;7.35;2.10;;;23.90;36.80;;;;;;6246780;23;20007;-77
2021/04/01 12:53:14;;;;;;;6.60;2.13;;;24.10;36.90;;;;;;6244314;23;20481;-77
2021/04/01 12:58:20;;;;;;;4.55;2.30;;;24.30;36.50;;;;;;6246742;23;20075;-77
2021/04/01 13:00:48;;;;;;;5.72;2.55;;;24.60;36.70;;;;;;6246527;23;21923;-77
2021/04/01 13:03:13;;;;;;;3.50;2.03;;;24.80;35.60;;;;;;6245770;23;19996;-77
2021/04/01 13:05:44;;;;;;;7.32;2.40;;;25.00;34.80;;;;;;6245067;23;20427;-78
2021/04/01 13:10:41;;;;;;;6.15;2.05;;;25.30;34.60;;;;;;6246120;23;20015;-78
2021/04/01 13:13:08;;;;;;;4.72;2.13;;;25.50;34.70;;;;;;6244930;23;20043;-78
2021/04/01 13:15:34;;;;;;;4.47;2.00;;;25.90;34.40;;;;;;6244213;23;20327;-78
2021/04/01 13:17:59;;;;;;;3.58;2.00;;;26.20;34.60;;;;;;6219111;23;20007;-76
2021/04/01 13:20:26;;;;;;;7.63;2.47;;;26.20;33.40;;;;;;6245725;23;20004;-76
2021/04/01 13:23:07;;;;;;;4.30;2.28;;;25.90;33.70;;;;;;6246278;23;20008;-77
2021/04/01 13:25:34;;;;;;;6.85;2.28;;;25.70;34.00;;;;;;6269430;22;20008;-75
2021/04/01 13:28:05;;;;;;;7.88;2.30;;;25.80;34.40;;;;;;6244460;23;20036;-77
2021/04/01 13:30:31;;;;;;;7.28;2.40;;;26.20;34.30;;;;;;6244016;23;20059;-78
2021/04/01 13:35:55;;;;;;;4.40;2.28;;;27.00;33.10;;;;;;6255764;23;20000;-77
2021/04/01 13:38:24;;;;;;;7.70;2.90;;;27.20;32.40;;;;;;6243517;23;20008;-76
2021/04/01 13:40:51;;;;;;;6.82;3.08;;;27.00;32.60;;;;;;6244309;23;20098;-77
2021/04/01 13:43:21;;;;;;;9.85;4.72;;;27.20;33.40;;;;;;6243481;23;20014;-78
2021/04/01 13:45:49;;;;;;;11.68;5.13;;;27.60;31.80;;;;;;6244580;23;20488;-77
2021/04/01 13:48:23;;;;;;;14.82;5.93;;;27.40;32.20;;;;;;6243831;23;20186;-76
2021/04/01 13:50:55;;;;;;;14.23;6.05;;;27.50;31.70;;;;;;6244235;23;20011;-76
2021/04/01 13:55:54;;;;;;;17.75;7.10;;;28.10;30.80;;;;;;6243470;23;20069;-76
2021/04/01 14:09:47;;;;;;;13.27;7.00;;;29.00;29.40;;;;;;6244938;23;20509;-76
2021/04/01 14:12:18;;;;;;;43.85;21.65;;;29.30;30.90;;;;;;6270211;22;20308;-80
2021/04/01 14:14:44;;;;;;;66.13;41.22;;;29.20;29.10;;;;;;6245351;23;20051;-84
2021/04/01 14:17:13;;;;;;;17.52;11.30;;;29.10;30.00;;;;;;6243837;23;20008;-75
2021/04/01 14:19:40;;;;;;;18.05;8.80;;;28.90;29.20;;;;;;6244082;23;20074;-75
2021/04/01 14:22:06;;;;;;;16.88;8.02;;;28.50;29.10;;;;;;6245408;23;20069;-75
2021/04/01 14:29:55;;;;;;;16.83;8.02;;;28.00;30.00;;;;;;6255827;23;20008;-75
2021/04/01 14:32:22;;;;;;;15.75;8.35;;;27.80;29.90;;;;;;6243284;23;20312;-76
2021/04/01 14:34:48;;;;;;;18.85;7.90;;;27.60;30.00;;;;;;6245274;23;20043;-75
2021/04/01 14:37:14;;;;;;;15.02;8.02;;;27.50;29.70;;;;;;6243913;23;20000;-76
2021/04/01 14:39:40;;;;;;;17.58;8.70;;;27.30;30.00;;;;;;6268804;22;20008;-74
2021/04/01 14:42:11;;;;;;;18.40;8.13;;;27.20;29.80;;;;;;6243502;23;20040;-75
2021/04/01 14:44:37;;;;;;;19.35;9.38;;;27.20;30.20;;;;;;6268567;22;20031;-75
2021/04/01 14:47:03;;;;;;;22.35;9.07;;;27.20;31.30;;;;;;6245456;23;20316;-75
2021/04/01 14:49:29;;;;;;;18.35;8.98;;;27.10;30.90;;;;;;6241833;23;20023;-75
2021/04/01 14:51:55;;;;;;;25.23;9.82;;;26.90;30.90;;;;;;6243723;23;20012;-76
2021/04/01 14:54:27;;;;;;;23.70;9.77;;;26.90;31.30;;;;;;6242735;23;20423;-75